sensor_id;sensor_type;location;lat;lon;timestamp;temperature;humidity
18160;DHT22;9205;52.032;4.314;2022-10-03T00:00:14;13.00;99.90
18160;DHT22;9205;52.032;4.314;2022-10-03T00:06:05;13.00;99.90
18160;DHT22;9205;52.032;4.314;2022-10-03T00:08:57;12.90;99.90
18160;DHT22;9205;52.032;4.314;2022-10-03T00:11:42;12.90;99.90
18160;DHT22;9205;52.032;4.314;2022-10-03T00:14:25;12.80;99.90
18160;DHT22;9205;52.032;4.314;2022-10-03T00:17:03;12.80;99.90
18160;DHT22;9205;52.032;4.314;2022-10-03T00:19:41;12.80;99.90
18160;DHT22;9205;52.032;4.314;2022-10-03T00:22:19;12.80;99.90
18160;DHT22;9205;52.032;4.314;2022-10-03T00:25:05;12.80;99.90
18160;DHT22;9205;52.032;4.314;2022-10-03T00:27:53;12.80;99.90
18160;DHT22;9205;52.032;4.314;2022-10-03T00:30:29;12.80;99.90
18160;DHT22;9205;52.032;4.314;2022-10-03T00:33:19;12.70;99.90
18160;DHT22;9205;52.032;4.314;2022-10-03T00:36:05;12.60;99.90
18160;DHT22;9205;52.032;4.314;2022-10-03T00:38:59;12.50;99.90
18160;DHT22;9205;52.032;4.314;2022-10-03T00:51:44;12.40;99.90
18160;DHT22;9205;52.032;4.314;2022-10-03T00:54:37;12.40;99.90
18160;DHT22;9205;52.032;4.314;2022-10-03T00:57:29;12.40;99.90
18160;DHT22;9205;52.032;4.314;2022-10-03T01:00:19;12.30;99.90
18160;DHT22;9205;52.032;4.314;2022-10-03T01:03:13;12.30;99.90
18160;DHT22;9205;52.032;4.314;2022-10-03T01:06:03;12.30;99.90
18160;DHT22;9205;52.032;4.314;2022-10-03T01:08:50;12.30;99.90
18160;DHT22;9205;52.032;4.314;2022-10-03T01:11:47;12.30;99.90
18160;DHT22;9205;52.032;4.314;2022-10-03T01:14:40;12.20;99.90
18160;DHT22;9205;52.032;4.314;2022-10-03T01:17:33;12.20;99.90
18160;DHT22;9205;52.032;4.314;2022-10-03T01:20:17;12.20;99.90
18160;DHT22;9205;52.032;4.314;2022-10-03T01:23:36;12.10;99.90
18160;DHT22;9205;52.032;4.314;2022-10-03T01:26:32;12.20;99.90
18160;DHT22;9205;52.032;4.314;2022-10-03T01:29:21;12.20;99.90
18160;DHT22;9205;52.032;4.314;2022-10-03T01:32:14;12.10;99.90
18160;DHT22;9205;52.032;4.314;2022-10-03T01:34:53;12.10;99.90
18160;DHT22;9205;52.032;4.314;2022-10-03T01:37:30;12.10;99.90
18160;DHT22;9205;52.032;4.314;2022-10-03T01:40:12;12.00;99.90
18160;DHT22;9205;52.032;4.314;2022-10-03T01:42:57;12.10;99.90
18160;DHT22;9205;52.032;4.314;2022-10-03T01:45:43;12.10;99.90
18160;DHT22;9205;52.032;4.314;2022-10-03T01:48:21;12.10;99.90
18160;DHT22;9205;52.032;4.314;2022-10-03T01:51:00;12.10;99.90
18160;DHT22;9205;52.032;4.314;2022-10-03T01:53:44;12.00;99.90
18160;DHT22;9205;52.032;4.314;2022-10-03T01:56:28;12.00;99.90
18160;DHT22;9205;52.032;4.314;2022-10-03T01:59:07;12.00;99.90
18160;DHT22;9205;52.032;4.314;2022-10-03T02:01:47;12.00;99.90
18160;DHT22;9205;52.032;4.314;2022-10-03T02:04:36;12.10;99.90
18160;DHT22;9205;52.032;4.314;2022-10-03T02:07:19;12.10;99.90
18160;DHT22;9205;52.032;4.314;2022-10-03T02:09:59;12.10;99.90
18160;DHT22;9205;52.032;4.314;2022-10-03T02:12:35;12.20;99.90
18160;DHT22;9205;52.032;4.314;2022-10-03T02:15:12;12.20;99.90
18160;DHT22;9205;52.032;4.314;2022-10-03T02:17:52;12.10;99.90
18160;DHT22;9205;52.032;4.314;2022-10-03T02:20:29;12.10;99.90
18160;DHT22;9205;52.032;4.314;2022-10-03T02:23:21;12.10;99.90
18160;DHT22;9205;52.032;4.314;2022-10-03T02:25:59;12.10;99.90
18160;DHT22;9205;52.032;4.314;2022-10-03T02:28:53;12.00;99.90
18160;DHT22;9205;52.032;4.314;2022-10-03T02:31:51;12.10;99.90
18160;DHT22;9205;52.032;4.314;2022-10-03T02:35:07;12.00;99.90
18160;DHT22;9205;52.032;4.314;2022-10-03T02:38:13;11.90;99.90
18160;DHT22;9205;52.032;4.314;2022-10-03T02:41:12;11.90;99.90
18160;DHT22;9205;52.032;4.314;2022-10-03T02:44:43;11.90;99.90
18160;DHT22;9205;52.032;4.314;2022-10-03T02:51:02;11.80;99.90
18160;DHT22;9205;52.032;4.314;2022-10-03T02:54:27;11.80;99.90
18160;DHT22;9205;52.032;4.314;2022-10-03T02:57:50;11.80;99.90
18160;DHT22;9205;52.032;4.314;2022-10-03T03:07:54;11.70;99.90
18160;DHT22;9205;52.032;4.314;2022-10-03T03:11:06;11.70;99.90
18160;DHT22;9205;52.032;4.314;2022-10-03T03:17:05;11.70;99.90
18160;DHT22;9205;52.032;4.314;2022-10-03T03:20:10;11.70;99.90
18160;DHT22;9205;52.032;4.314;2022-10-03T03:23:11;11.80;99.90
18160;DHT22;9205;52.032;4.314;2022-10-03T03:26:00;11.80;99.90
18160;DHT22;9205;52.032;4.314;2022-10-03T03:28:44;11.80;99.90
18160;DHT22;9205;52.032;4.314;2022-10-03T03:31:22;11.80;99.90
18160;DHT22;9205;52.032;4.314;2022-10-03T03:34:02;11.80;99.90
18160;DHT22;9205;52.032;4.314;2022-10-03T03:36:40;11.90;99.90
18160;DHT22;9205;52.032;4.314;2022-10-03T03:39:39;11.90;99.90
18160;DHT22;9205;52.032;4.314;2022-10-03T03:42:32;11.90;99.90
18160;DHT22;9205;52.032;4.314;2022-10-03T03:45:24;11.90;99.90
18160;DHT22;9205;52.032;4.314;2022-10-03T03:48:17;12.00;99.90
18160;DHT22;9205;52.032;4.314;2022-10-03T03:51:22;11.90;99.90
18160;DHT22;9205;52.032;4.314;2022-10-03T03:54:15;11.90;99.90
18160;DHT22;9205;52.032;4.314;2022-10-03T04:00:13;11.90;99.90
18160;DHT22;9205;52.032;4.314;2022-10-03T04:02:53;11.80;99.90
18160;DHT22;9205;52.032;4.314;2022-10-03T04:05:45;11.80;99.90
18160;DHT22;9205;52.032;4.314;2022-10-03T04:08:40;11.80;99.90
18160;DHT22;9205;52.032;4.314;2022-10-03T04:11:35;11.70;99.90
18160;DHT22;9205;52.032;4.314;2022-10-03T04:14:38;11.70;99.90
18160;DHT22;9205;52.032;4.314;2022-10-03T04:17:33;11.70;99.90
18160;DHT22;9205;52.032;4.314;2022-10-03T04:20:43;11.70;99.90
18160;DHT22;9205;52.032;4.314;2022-10-03T04:23:31;11.70;99.90
18160;DHT22;9205;52.032;4.314;2022-10-03T04:26:26;11.60;99.90
18160;DHT22;9205;52.032;4.314;2022-10-03T04:29:26;11.60;99.90
18160;DHT22;9205;52.032;4.314;2022-10-03T04:35:37;11.50;99.90
18160;DHT22;9205;52.032;4.314;2022-10-03T04:38:44;11.50;99.90
18160;DHT22;9205;52.032;4.314;2022-10-03T04:41:26;11.50;99.90
18160;DHT22;9205;52.032;4.314;2022-10-03T04:44:10;11.50;99.90
18160;DHT22;9205;52.032;4.314;2022-10-03T04:46:51;11.50;99.90
18160;DHT22;9205;52.032;4.314;2022-10-03T04:49:29;11.40;99.90
18160;DHT22;9205;52.032;4.314;2022-10-03T04:52:05;11.40;99.90
18160;DHT22;9205;52.032;4.314;2022-10-03T04:54:55;11.50;99.90
18160;DHT22;9205;52.032;4.314;2022-10-03T04:57:36;11.40;99.90
18160;DHT22;9205;52.032;4.314;2022-10-03T05:00:21;11.40;99.90
18160;DHT22;9205;52.032;4.314;2022-10-03T05:03:00;11.30;99.90
18160;DHT22;9205;52.032;4.314;2022-10-03T05:05:47;11.40;99.90
18160;DHT22;9205;52.032;4.314;2022-10-03T05:08:32;11.30;99.90
18160;DHT22;9205;52.032;4.314;2022-10-03T05:11:11;11.30;99.90
18160;DHT22;9205;52.032;4.314;2022-10-03T05:13:53;11.30;99.90
18160;DHT22;9205;52.032;4.314;2022-10-03T05:16:34;11.20;99.90
18160;DHT22;9205;52.032;4.314;2022-10-03T05:22:22;11.20;99.90
18160;DHT22;9205;52.032;4.314;2022-10-03T05:25:10;11.20;99.90
18160;DHT22;9205;52.032;4.314;2022-10-03T05:27:50;11.20;99.90
18160;DHT22;9205;52.032;4.314;2022-10-03T05:30:32;11.20;99.90
18160;DHT22;9205;52.032;4.314;2022-10-03T05:33:18;11.20;99.90
18160;DHT22;9205;52.032;4.314;2022-10-03T05:36:08;11.20;99.90
18160;DHT22;9205;52.032;4.314;2022-10-03T05:42:17;11.30;99.90
18160;DHT22;9205;52.032;4.314;2022-10-03T05:45:03;11.30;99.90
18160;DHT22;9205;52.032;4.314;2022-10-03T05:47:45;11.20;99.90
18160;DHT22;9205;52.032;4.314;2022-10-03T05:50:41;11.20;99.90
18160;DHT22;9205;52.032;4.314;2022-10-03T05:53:47;11.30;99.90
18160;DHT22;9205;52.032;4.314;2022-10-03T05:56:39;11.30;99.90
18160;DHT22;9205;52.032;4.314;2022-10-03T05:59:42;11.40;99.90
18160;DHT22;9205;52.032;4.314;2022-10-03T06:02:52;11.50;99.90
18160;DHT22;9205;52.032;4.314;2022-10-03T06:05:50;11.60;99.90
18160;DHT22;9205;52.032;4.314;2022-10-03T06:09:06;11.50;99.90
18160;DHT22;9205;52.032;4.314;2022-10-03T06:12:02;11.60;99.90
18160;DHT22;9205;52.032;4.314;2022-10-03T06:18:01;11.80;99.90
18160;DHT22;9205;52.032;4.314;2022-10-03T06:21:05;11.90;99.90
18160;DHT22;9205;52.032;4.314;2022-10-03T06:27:42;12.00;99.90
18160;DHT22;9205;52.032;4.314;2022-10-03T06:30:58;12.00;99.90
18160;DHT22;9205;52.032;4.314;2022-10-03T06:40:34;12.30;99.90
18160;DHT22;9205;52.032;4.314;2022-10-03T06:50:15;12.50;99.90
18160;DHT22;9205;52.032;4.314;2022-10-03T06:53:15;12.50;99.90
18160;DHT22;9205;52.032;4.314;2022-10-03T07:06:12;12.80;99.90
18160;DHT22;9205;52.032;4.314;2022-10-03T07:09:45;12.80;99.90
18160;DHT22;9205;52.032;4.314;2022-10-03T07:12:53;12.90;99.90
18160;DHT22;9205;52.032;4.314;2022-10-03T07:15:47;13.00;99.90
18160;DHT22;9205;52.032;4.314;2022-10-03T07:22:39;13.10;99.90
18160;DHT22;9205;52.032;4.314;2022-10-03T07:29:52;13.30;99.90
18160;DHT22;9205;52.032;4.314;2022-10-03T07:36:30;13.40;99.90
18160;DHT22;9205;52.032;4.314;2022-10-03T07:42:52;13.50;99.90
18160;DHT22;9205;52.032;4.314;2022-10-03T07:45:43;13.60;99.90
18160;DHT22;9205;52.032;4.314;2022-10-03T07:48:33;13.60;99.90
18160;DHT22;9205;52.032;4.314;2022-10-03T07:51:22;13.70;99.90
18160;DHT22;9205;52.032;4.314;2022-10-03T07:54:31;13.60;99.90
18160;DHT22;9205;52.032;4.314;2022-10-03T07:57:34;13.80;99.90
18160;DHT22;9205;52.032;4.314;2022-10-03T08:00:20;13.90;99.90
18160;DHT22;9205;52.032;4.314;2022-10-03T08:06:29;14.00;99.90
18160;DHT22;9205;52.032;4.314;2022-10-03T08:09:38;14.10;99.90
18160;DHT22;9205;52.032;4.314;2022-10-03T08:12:54;14.20;99.90
18160;DHT22;9205;52.032;4.314;2022-10-03T08:15:49;14.20;99.90
18160;DHT22;9205;52.032;4.314;2022-10-03T08:22:05;14.30;99.90
18160;DHT22;9205;52.032;4.314;2022-10-03T08:24:59;14.50;99.90
18160;DHT22;9205;52.032;4.314;2022-10-03T08:31:26;14.60;99.90
18160;DHT22;9205;52.032;4.314;2022-10-03T08:34:42;14.60;99.90
18160;DHT22;9205;52.032;4.314;2022-10-03T08:38:06;14.70;99.90
18160;DHT22;9205;52.032;4.314;2022-10-03T08:41:17;14.80;99.90
18160;DHT22;9205;52.032;4.314;2022-10-03T08:51:29;15.00;99.90
18160;DHT22;9205;52.032;4.314;2022-10-03T08:58:01;15.20;99.90
18160;DHT22;9205;52.032;4.314;2022-10-03T09:01:09;15.20;99.90
18160;DHT22;9205;52.032;4.314;2022-10-03T09:04:28;15.30;99.90
18160;DHT22;9205;52.032;4.314;2022-10-03T09:07:28;15.20;99.90
18160;DHT22;9205;52.032;4.314;2022-10-03T09:10:33;15.30;99.90
18160;DHT22;9205;52.032;4.314;2022-10-03T09:13:46;15.30;99.90
18160;DHT22;9205;52.032;4.314;2022-10-03T09:16:55;15.50;99.90
18160;DHT22;9205;52.032;4.314;2022-10-03T09:19:51;15.50;99.90
18160;DHT22;9205;52.032;4.314;2022-10-03T09:23:17;15.40;99.90
18160;DHT22;9205;52.032;4.314;2022-10-03T09:29:48;15.50;99.90
18160;DHT22;9205;52.032;4.314;2022-10-03T09:33:21;15.60;99.90
18160;DHT22;9205;52.032;4.314;2022-10-03T09:46:55;15.60;99.90
18160;DHT22;9205;52.032;4.314;2022-10-03T10:00:46;15.70;99.90
18160;DHT22;9205;52.032;4.314;2022-10-03T10:03:59;15.80;99.90
18160;DHT22;9205;52.032;4.314;2022-10-03T10:20:42;15.70;99.90
18160;DHT22;9205;52.032;4.314;2022-10-03T10:23:49;15.70;99.90
18160;DHT22;9205;52.032;4.314;2022-10-03T10:27:01;15.70;99.90
18160;DHT22;9205;52.032;4.314;2022-10-03T10:30:19;15.60;99.90
18160;DHT22;9205;52.032;4.314;2022-10-03T10:40:05;15.70;99.90
18160;DHT22;9205;52.032;4.314;2022-10-03T10:43:40;15.60;99.90
18160;DHT22;9205;52.032;4.314;2022-10-03T10:47:26;15.70;99.90
18160;DHT22;9205;52.032;4.314;2022-10-03T10:57:23;15.60;99.90
18160;DHT22;9205;52.032;4.314;2022-10-03T11:00:17;15.60;99.90
18160;DHT22;9205;52.032;4.314;2022-10-03T11:06:45;15.50;99.90
18160;DHT22;9205;52.032;4.314;2022-10-03T11:09:50;15.60;99.90
18160;DHT22;9205;52.032;4.314;2022-10-03T11:13:21;15.60;99.90
18160;DHT22;9205;52.032;4.314;2022-10-03T11:20:17;15.50;99.90
18160;DHT22;9205;52.032;4.314;2022-10-03T11:23:47;15.60;99.90
18160;DHT22;9205;52.032;4.314;2022-10-03T11:27:17;15.70;99.90
18160;DHT22;9205;52.032;4.314;2022-10-03T11:30:21;15.60;99.90
18160;DHT22;9205;52.032;4.314;2022-10-03T11:39:50;15.70;99.90
18160;DHT22;9205;52.032;4.314;2022-10-03T11:42:34;15.60;99.90
18160;DHT22;9205;52.032;4.314;2022-10-03T11:45:22;15.70;99.90
18160;DHT22;9205;52.032;4.314;2022-10-03T11:48:26;15.70;99.90
18160;DHT22;9205;52.032;4.314;2022-10-03T11:51:10;15.70;99.90
18160;DHT22;9205;52.032;4.314;2022-10-03T11:53:45;15.70;99.90
18160;DHT22;9205;52.032;4.314;2022-10-03T11:56:34;15.70;99.90
18160;DHT22;9205;52.032;4.314;2022-10-03T12:02:36;15.90;99.90
18160;DHT22;9205;52.032;4.314;2022-10-03T12:05:22;15.90;99.90
18160;DHT22;9205;52.032;4.314;2022-10-03T12:08:33;16.00;99.90
18160;DHT22;9205;52.032;4.314;2022-10-03T12:11:47;16.00;99.90
18160;DHT22;9205;52.032;4.314;2022-10-03T12:14:48;16.10;99.90
18160;DHT22;9205;52.032;4.314;2022-10-03T12:17:26;16.10;99.90
18160;DHT22;9205;52.032;4.314;2022-10-03T12:20:14;16.00;99.90
18160;DHT22;9205;52.032;4.314;2022-10-03T12:22:54;16.10;99.90
18160;DHT22;9205;52.032;4.314;2022-10-03T12:25:39;16.10;99.90
18160;DHT22;9205;52.032;4.314;2022-10-03T12:28:18;16.10;99.90
18160;DHT22;9205;52.032;4.314;2022-10-03T12:33:51;16.10;99.90
18160;DHT22;9205;52.032;4.314;2022-10-03T12:36:29;16.20;99.90
18160;DHT22;9205;52.032;4.314;2022-10-03T12:39:45;16.20;99.90
18160;DHT22;9205;52.032;4.314;2022-10-03T12:42:35;16.30;99.90
18160;DHT22;9205;52.032;4.314;2022-10-03T12:45:17;16.30;99.90
18160;DHT22;9205;52.032;4.314;2022-10-03T12:48:21;16.40;99.90
18160;DHT22;9205;52.032;4.314;2022-10-03T12:51:04;16.40;99.90
18160;DHT22;9205;52.032;4.314;2022-10-03T12:53:50;16.40;99.90
18160;DHT22;9205;52.032;4.314;2022-10-03T12:56:34;16.50;99.90
18160;DHT22;9205;52.032;4.314;2022-10-03T12:59:15;16.50;99.90
18160;DHT22;9205;52.032;4.314;2022-10-03T13:02:15;16.50;99.90
18160;DHT22;9205;52.032;4.314;2022-10-03T13:05:14;16.60;99.90
18160;DHT22;9205;52.032;4.314;2022-10-03T13:07:54;16.50;99.90
18160;DHT22;9205;52.032;4.314;2022-10-03T13:10:36;16.50;99.90
18160;DHT22;9205;52.032;4.314;2022-10-03T13:13:22;16.50;99.90
18160;DHT22;9205;52.032;4.314;2022-10-03T13:16:14;16.40;99.90
18160;DHT22;9205;52.032;4.314;2022-10-03T13:18:52;16.50;99.90
18160;DHT22;9205;52.032;4.314;2022-10-03T13:21:35;16.50;99.90
18160;DHT22;9205;52.032;4.314;2022-10-03T13:24:20;16.60;99.90
18160;DHT22;9205;52.032;4.314;2022-10-03T13:27:16;16.60;99.90
18160;DHT22;9205;52.032;4.314;2022-10-03T13:30:03;16.60;99.90
18160;DHT22;9205;52.032;4.314;2022-10-03T13:32:41;16.60;99.90
18160;DHT22;9205;52.032;4.314;2022-10-03T13:35:37;16.60;99.90
18160;DHT22;9205;52.032;4.314;2022-10-03T13:41:54;16.60;99.90
18160;DHT22;9205;52.032;4.314;2022-10-03T13:44:34;16.50;99.90
18160;DHT22;9205;52.032;4.314;2022-10-03T13:47:16;16.60;99.90
18160;DHT22;9205;52.032;4.314;2022-10-03T13:49:54;16.50;99.90
18160;DHT22;9205;52.032;4.314;2022-10-03T13:52:35;16.60;99.90
18160;DHT22;9205;52.032;4.314;2022-10-03T13:55:22;16.60;99.90
18160;DHT22;9205;52.032;4.314;2022-10-03T13:58:32;16.70;99.90
18160;DHT22;9205;52.032;4.314;2022-10-03T14:01:18;16.60;99.90
18160;DHT22;9205;52.032;4.314;2022-10-03T14:04:23;16.70;99.90
18160;DHT22;9205;52.032;4.314;2022-10-03T14:07:12;16.60;99.90
18160;DHT22;9205;52.032;4.314;2022-10-03T14:10:09;16.60;99.90
18160;DHT22;9205;52.032;4.314;2022-10-03T14:12:54;16.70;99.90
18160;DHT22;9205;52.032;4.314;2022-10-03T14:15:46;16.80;99.90
18160;DHT22;9205;52.032;4.314;2022-10-03T14:21:38;16.60;99.90
18160;DHT22;9205;52.032;4.314;2022-10-03T14:27:43;16.70;99.90
18160;DHT22;9205;52.032;4.314;2022-10-03T14:30:18;16.60;99.90
18160;DHT22;9205;52.032;4.314;2022-10-03T14:32:58;16.60;99.90
18160;DHT22;9205;52.032;4.314;2022-10-03T14:35:39;16.70;99.90
18160;DHT22;9205;52.032;4.314;2022-10-03T14:38:36;16.70;99.90
18160;DHT22;9205;52.032;4.314;2022-10-03T14:41:36;16.70;99.90
18160;DHT22;9205;52.032;4.314;2022-10-03T14:44:15;16.80;99.90
18160;DHT22;9205;52.032;4.314;2022-10-03T14:46:49;16.80;99.90
18160;DHT22;9205;52.032;4.314;2022-10-03T14:49:25;16.90;99.90
18160;DHT22;9205;52.032;4.314;2022-10-03T14:51:59;16.80;99.90
18160;DHT22;9205;52.032;4.314;2022-10-03T14:54:30;16.90;99.90
18160;DHT22;9205;52.032;4.314;2022-10-03T14:57:13;16.80;99.90
18160;DHT22;9205;52.032;4.314;2022-10-03T14:59:57;16.80;99.90
18160;DHT22;9205;52.032;4.314;2022-10-03T15:02:29;16.90;99.90
18160;DHT22;9205;52.032;4.314;2022-10-03T15:05:06;16.80;99.90
18160;DHT22;9205;52.032;4.314;2022-10-03T15:07:41;16.80;99.90
18160;DHT22;9205;52.032;4.314;2022-10-03T15:10:17;16.80;99.90
18160;DHT22;9205;52.032;4.314;2022-10-03T15:12:54;16.70;99.90
18160;DHT22;9205;52.032;4.314;2022-10-03T15:15:27;16.60;99.90
18160;DHT22;9205;52.032;4.314;2022-10-03T15:18:01;16.70;99.90
18160;DHT22;9205;52.032;4.314;2022-10-03T15:20:33;16.60;99.90
18160;DHT22;9205;52.032;4.314;2022-10-03T15:23:08;16.60;99.90
18160;DHT22;9205;52.032;4.314;2022-10-03T15:25:46;16.70;99.90
18160;DHT22;9205;52.032;4.314;2022-10-03T15:28:20;16.60;99.90
18160;DHT22;9205;52.032;4.314;2022-10-03T15:30:53;16.60;99.90
18160;DHT22;9205;52.032;4.314;2022-10-03T15:33:28;16.60;99.90
18160;DHT22;9205;52.032;4.314;2022-10-03T15:36:13;16.60;99.90
18160;DHT22;9205;52.032;4.314;2022-10-03T15:38:44;16.60;99.90
18160;DHT22;9205;52.032;4.314;2022-10-03T15:41:18;16.60;99.90
18160;DHT22;9205;52.032;4.314;2022-10-03T15:43:57;16.60;99.90
18160;DHT22;9205;52.032;4.314;2022-10-03T15:46:32;16.60;99.90
18160;DHT22;9205;52.032;4.314;2022-10-03T15:49:06;16.50;99.90
18160;DHT22;9205;52.032;4.314;2022-10-03T15:51:43;16.50;99.90
18160;DHT22;9205;52.032;4.314;2022-10-03T15:54:23;16.50;99.90
18160;DHT22;9205;52.032;4.314;2022-10-03T15:56:58;16.50;99.90
18160;DHT22;9205;52.032;4.314;2022-10-03T15:59:33;16.40;99.90
18160;DHT22;9205;52.032;4.314;2022-10-03T16:02:08;16.50;99.90
18160;DHT22;9205;52.032;4.314;2022-10-03T16:04:44;16.50;99.90
18160;DHT22;9205;52.032;4.314;2022-10-03T16:07:21;16.50;99.90
18160;DHT22;9205;52.032;4.314;2022-10-03T16:10:00;16.50;99.90
18160;DHT22;9205;52.032;4.314;2022-10-03T16:13:08;16.50;99.90
18160;DHT22;9205;52.032;4.314;2022-10-03T16:15:59;16.40;99.90
18160;DHT22;9205;52.032;4.314;2022-10-03T16:18:58;16.50;99.90
18160;DHT22;9205;52.032;4.314;2022-10-03T16:21:46;16.40;99.90
18160;DHT22;9205;52.032;4.314;2022-10-03T16:24:23;16.30;99.90
18160;DHT22;9205;52.032;4.314;2022-10-03T16:27:06;16.20;99.90
18160;DHT22;9205;52.032;4.314;2022-10-03T16:29:43;16.30;99.90
18160;DHT22;9205;52.032;4.314;2022-10-03T16:32:19;16.20;99.90
18160;DHT22;9205;52.032;4.314;2022-10-03T16:34:57;16.10;99.90
18160;DHT22;9205;52.032;4.314;2022-10-03T16:37:29;16.20;99.90
18160;DHT22;9205;52.032;4.314;2022-10-03T16:39:59;16.10;99.90
18160;DHT22;9205;52.032;4.314;2022-10-03T16:42:37;16.00;99.90
18160;DHT22;9205;52.032;4.314;2022-10-03T16:45:20;16.00;99.90
18160;DHT22;9205;52.032;4.314;2022-10-03T16:47:59;16.00;99.90
18160;DHT22;9205;52.032;4.314;2022-10-03T16:50:55;15.90;99.90
18160;DHT22;9205;52.032;4.314;2022-10-03T16:53:23;15.90;99.90
18160;DHT22;9205;52.032;4.314;2022-10-03T16:55:53;15.90;99.90
18160;DHT22;9205;52.032;4.314;2022-10-03T16:58:27;15.80;99.90
18160;DHT22;9205;52.032;4.314;2022-10-03T17:00:59;15.80;99.90
18160;DHT22;9205;52.032;4.314;2022-10-03T17:03:34;15.80;99.90
18160;DHT22;9205;52.032;4.314;2022-10-03T17:06:44;15.80;99.90
18160;DHT22;9205;52.032;4.314;2022-10-03T17:09:22;15.70;99.90
18160;DHT22;9205;52.032;4.314;2022-10-03T17:11:58;15.70;99.90
18160;DHT22;9205;52.032;4.314;2022-10-03T17:14:34;15.50;99.90
18160;DHT22;9205;52.032;4.314;2022-10-03T17:17:07;15.50;99.90
18160;DHT22;9205;52.032;4.314;2022-10-03T17:19:56;15.50;99.90
18160;DHT22;9205;52.032;4.314;2022-10-03T17:22:35;15.50;99.90
18160;DHT22;9205;52.032;4.314;2022-10-03T17:25:33;15.40;99.90
18160;DHT22;9205;52.032;4.314;2022-10-03T17:28:10;15.30;99.90
18160;DHT22;9205;52.032;4.314;2022-10-03T17:30:45;15.30;99.90
18160;DHT22;9205;52.032;4.314;2022-10-03T17:33:20;15.20;99.90
18160;DHT22;9205;52.032;4.314;2022-10-03T17:36:03;15.20;99.90
18160;DHT22;9205;52.032;4.314;2022-10-03T17:39:01;15.10;99.90
18160;DHT22;9205;52.032;4.314;2022-10-03T17:41:36;15.10;99.90
18160;DHT22;9205;52.032;4.314;2022-10-03T17:44:18;15.10;99.90
18160;DHT22;9205;52.032;4.314;2022-10-03T17:46:59;15.00;99.90
18160;DHT22;9205;52.032;4.314;2022-10-03T17:49:44;15.00;99.90
18160;DHT22;9205;52.032;4.314;2022-10-03T17:52:21;15.00;99.90
18160;DHT22;9205;52.032;4.314;2022-10-03T17:54:54;14.90;99.90
18160;DHT22;9205;52.032;4.314;2022-10-03T17:57:26;14.90;99.90
18160;DHT22;9205;52.032;4.314;2022-10-03T18:00:00;14.90;99.90
18160;DHT22;9205;52.032;4.314;2022-10-03T18:02:38;14.90;99.90
18160;DHT22;9205;52.032;4.314;2022-10-03T18:05:15;14.90;99.90
18160;DHT22;9205;52.032;4.314;2022-10-03T18:07:45;14.90;99.90
18160;DHT22;9205;52.032;4.314;2022-10-03T18:10:23;14.80;99.90
18160;DHT22;9205;52.032;4.314;2022-10-03T18:12:57;14.80;99.90
18160;DHT22;9205;52.032;4.314;2022-10-03T18:15:56;14.90;99.90
18160;DHT22;9205;52.032;4.314;2022-10-03T18:19:13;14.80;99.90
18160;DHT22;9205;52.032;4.314;2022-10-03T18:21:58;14.80;99.90
18160;DHT22;9205;52.032;4.314;2022-10-03T18:24:46;14.80;99.90
18160;DHT22;9205;52.032;4.314;2022-10-03T18:30:49;14.70;99.90
18160;DHT22;9205;52.032;4.314;2022-10-03T18:33:20;14.70;99.90
18160;DHT22;9205;52.032;4.314;2022-10-03T18:35:52;14.70;99.90
18160;DHT22;9205;52.032;4.314;2022-10-03T18:38:21;14.70;99.90
18160;DHT22;9205;52.032;4.314;2022-10-03T18:40:53;14.70;99.90
18160;DHT22;9205;52.032;4.314;2022-10-03T18:43:32;14.70;99.90
18160;DHT22;9205;52.032;4.314;2022-10-03T18:46:12;14.60;99.90
18160;DHT22;9205;52.032;4.314;2022-10-03T18:48:57;14.70;99.90
18160;DHT22;9205;52.032;4.314;2022-10-03T18:51:33;14.60;99.90
18160;DHT22;9205;52.032;4.314;2022-10-03T18:54:18;14.60;99.90
18160;DHT22;9205;52.032;4.314;2022-10-03T18:57:04;14.70;99.90
18160;DHT22;9205;52.032;4.314;2022-10-03T18:59:43;14.70;99.90
18160;DHT22;9205;52.032;4.314;2022-10-03T19:02:18;14.60;99.90
18160;DHT22;9205;52.032;4.314;2022-10-03T19:04:53;14.60;99.90
18160;DHT22;9205;52.032;4.314;2022-10-03T19:07:28;14.60;99.90
18160;DHT22;9205;52.032;4.314;2022-10-03T19:10:20;14.60;99.90
18160;DHT22;9205;52.032;4.314;2022-10-03T19:13:02;14.50;99.90
18160;DHT22;9205;52.032;4.314;2022-10-03T19:18:46;14.50;99.90
18160;DHT22;9205;52.032;4.314;2022-10-03T19:21:19;14.50;99.90
18160;DHT22;9205;52.032;4.314;2022-10-03T19:23:50;14.40;99.90
18160;DHT22;9205;52.032;4.314;2022-10-03T19:26:27;14.50;99.90
18160;DHT22;9205;52.032;4.314;2022-10-03T19:29:02;14.50;99.90
18160;DHT22;9205;52.032;4.314;2022-10-03T19:31:38;14.50;99.90
18160;DHT22;9205;52.032;4.314;2022-10-03T19:34:16;14.50;99.90
18160;DHT22;9205;52.032;4.314;2022-10-03T19:36:50;14.50;99.90
18160;DHT22;9205;52.032;4.314;2022-10-03T19:39:20;14.50;99.90
18160;DHT22;9205;52.032;4.314;2022-10-03T19:41:52;14.60;99.90
18160;DHT22;9205;52.032;4.314;2022-10-03T19:44:23;14.50;99.90
18160;DHT22;9205;52.032;4.314;2022-10-03T19:47:04;14.40;99.90
18160;DHT22;9205;52.032;4.314;2022-10-03T19:49:55;14.40;99.90
18160;DHT22;9205;52.032;4.314;2022-10-03T19:52:31;14.40;99.90
18160;DHT22;9205;52.032;4.314;2022-10-03T19:55:03;14.50;99.90
18160;DHT22;9205;52.032;4.314;2022-10-03T19:57:42;14.40;99.90
18160;DHT22;9205;52.032;4.314;2022-10-03T20:00:28;14.40;99.90
18160;DHT22;9205;52.032;4.314;2022-10-03T20:03:09;14.50;99.90
18160;DHT22;9205;52.032;4.314;2022-10-03T20:05:48;14.50;99.90
18160;DHT22;9205;52.032;4.314;2022-10-03T20:08:22;14.40;99.90
18160;DHT22;9205;52.032;4.314;2022-10-03T20:11:04;14.40;99.90
18160;DHT22;9205;52.032;4.314;2022-10-03T20:13:41;14.40;99.90
18160;DHT22;9205;52.032;4.314;2022-10-03T20:16:12;14.40;99.90
18160;DHT22;9205;52.032;4.314;2022-10-03T20:18:44;14.50;99.90
18160;DHT22;9205;52.032;4.314;2022-10-03T20:21:18;14.40;99.90
18160;DHT22;9205;52.032;4.314;2022-10-03T20:23:51;14.30;99.90
18160;DHT22;9205;52.032;4.314;2022-10-03T20:26:24;14.30;99.90
18160;DHT22;9205;52.032;4.314;2022-10-03T20:29:17;14.30;99.90
18160;DHT22;9205;52.032;4.314;2022-10-03T20:31:50;14.20;99.90
18160;DHT22;9205;52.032;4.314;2022-10-03T20:34:25;14.10;99.90
18160;DHT22;9205;52.032;4.314;2022-10-03T20:37:01;14.10;99.90
18160;DHT22;9205;52.032;4.314;2022-10-03T20:39:45;14.10;99.90
18160;DHT22;9205;52.032;4.314;2022-10-03T20:42:15;14.00;99.90
18160;DHT22;9205;52.032;4.314;2022-10-03T20:44:59;14.00;99.90
18160;DHT22;9205;52.032;4.314;2022-10-03T20:47:47;14.00;99.90
18160;DHT22;9205;52.032;4.314;2022-10-03T20:50:24;14.00;99.90
18160;DHT22;9205;52.032;4.314;2022-10-03T20:52:57;13.90;99.90
18160;DHT22;9205;52.032;4.314;2022-10-03T20:55:29;13.90;99.90
18160;DHT22;9205;52.032;4.314;2022-10-03T20:58:13;14.00;99.90
18160;DHT22;9205;52.032;4.314;2022-10-03T21:00:48;13.90;99.90
18160;DHT22;9205;52.032;4.314;2022-10-03T21:03:33;13.90;99.90
18160;DHT22;9205;52.032;4.314;2022-10-03T21:06:15;14.00;99.90
18160;DHT22;9205;52.032;4.314;2022-10-03T21:08:45;14.00;99.90
18160;DHT22;9205;52.032;4.314;2022-10-03T21:11:18;14.00;99.90